ginnys.com alexa rank chart, ginnys.com alexa rank daily changes

ginnys.com alexa rank chart, ginnys.com alexa rank daily changes

ginnys.com
Actual rank:
144 019

RANK HISTORY

Date Rank Diff
2017/07/22 144 019 -4 350
2017/07/21 148 369 -1 296
2017/07/20 149 665 -1 494
2017/07/19 151 159 -2 954
2017/07/18 154 113 -3 056
2017/07/17 157 169 -819
2017/07/16 157 988 -2 773
2017/07/15 160 761 -1 134
2017/07/14 161 895 +1 553
2017/07/13 160 342 -2 312
2017/07/12 162 654 -3 279
2017/07/11 165 933 -1 245
2017/07/10 167 178 -3 235
2017/07/09 170 413 -1 972
2017/07/08 172 385 -4 163
2017/07/07 176 548 -1 207
2017/07/06 177 755 +5 469
2017/07/05 172 286 +1 251
2017/07/04 171 035 +5 570
2017/07/03 165 465 +4 820
2017/07/02 160 645 -1 291
2017/07/01 161 936 +806
2017/06/30 161 130 -342
2017/06/29 161 472 +3 182
2017/06/28 158 290 -702
2017/06/27 158 992 +690
2017/06/26 158 302 -1 540
2017/06/25 159 842 -4 536
2017/06/24 164 378 -8 053
2017/06/23 172 431 -2 238
2017/06/22 174 669 +4 145
2017/06/21 170 524 +4 054
2017/06/20 166 470 +526
2017/06/19 165 944 +3 544
2017/06/18 162 400 +2 069
2017/06/17 160 331 -5 186
2017/06/16 165 517 +5 167
2017/06/15 160 350 +2 736
2017/06/14 157 614 +591
2017/06/13 157 023 +328
2017/06/12 156 695 +466
2017/06/11 156 229 -2 761
2017/06/10 158 990 -1 057
2017/06/09 160 047 -1 129
2017/06/08 161 176 -508
2017/06/07 161 684 -1 623
2017/06/06 163 307 -1 483
2017/06/05 164 790 -2 657
2017/06/04 167 447 -9 320
2017/06/03 176 767 -11 566
2017/06/02 188 333 +3 443
2017/06/01 184 890 -2 984
2017/05/31 187 874 +4 377
2017/05/30 183 497 -3 979
2017/05/29 187 476 -5 477
2017/05/28 192 953 +868
2017/05/27 192 085 -2 543
2017/05/26 194 628 +331
2017/05/25 194 297 -1 500
2017/05/24 195 797 +5 994
2017/05/23 189 803

WIDGET FOR YOUR SITE

DOMAINS WITH THE NEAREST RANK

Domain Rank
luxsci.com 144 014
espace-famille.net 144 015
hkpro.com 144 016
droga5.com 144 017
signal.co 144 018
ginnys.com 144 019
hzpp.hr 144 020
goldlit.ru 144 021
feifan-vpn.cn 144 022
nankai.co.jp 144 023
slashsky.com 144 024

DOMAINS WITH THE NEAREST RANK BY TLD .com

Domain Rank
daebakgirls.com 144 008
brightstorm.com 144 009
luxsci.com 144 014
hkpro.com 144 016
droga5.com 144 017
ginnys.com 144 019
slashsky.com 144 024
swfa.com 144 025
edf.com 144 026
mathpages.com 144 028
africam.com 144 029